Time;durP1;ratioP1;P1;durP2;ratioP2;P2;SDS_P1;SDS_P2;PMS_P1;PMS_P2;Temp;Humidity;BMP_temperature;BMP_pressure;BME280_temperature;BME280_humidity;BME280_pressure;Samples;Min_cycle;Max_cycle;Signal;HPM_P1;HPM_P2
2022/06/11 00:24:28;;;;;;;2.03;1.88;;;;;;;;;;6153084;23;20153;-88
2022/06/11 00:33:55;;;;;;;2.13;1.92;;;;;;;;;;6149895;23;20234;-91
2022/06/11 00:36:33;;;;;;;2.17;1.98;;;;;;;;;;6243351;22;20167;-89
2022/06/11 00:39:06;;;;;;;1.80;1.70;;;;;;;;;;6275794;22;20254;-90
2022/06/11 00:41:37;;;;;;;1.80;1.70;;;;;;;;;;6283705;22;20206;-86
2022/06/11 00:44:04;;;;;;;2.35;2.15;;;;;;;;;;6294485;22;20172;-86
2022/06/11 00:46:52;;;;;;;2.03;1.83;;;;;;;;;;6297067;22;20191;-86
2022/06/11 00:49:23;;;;;;;1.88;1.77;;;;;;;;;;6299005;22;20171;-86
2022/06/11 00:51:55;;;;;;;1.83;1.70;;;;;;;;;;6299675;22;20215;-85
2022/06/11 00:54:24;;;;;;;2.47;1.77;;;;;;;;;;6287805;22;20172;-86
2022/06/11 00:56:53;;;;;;;2.20;2.00;;;;;;;;;;6275792;22;20192;-87
2022/06/11 00:59:37;;;;;;;1.85;1.70;;;;;;;;;;6276311;22;20172;-87
2022/06/11 01:02:05;;;;;;;2.00;1.90;;;;;;;;;;6277162;22;20194;-87
2022/06/11 01:04:36;;;;;;;1.92;1.80;;;;;;;;;;6275672;22;20179;-87
2022/06/11 01:07:09;;;;;;;2.10;1.92;;;;;;;;;;6275331;22;20234;-87
2022/06/11 01:09:42;;;;;;;1.92;1.77;;;;;;;;;;6275796;22;20160;-87
2022/06/11 01:12:14;;;;;;;2.05;1.88;;;;;;;;;;6275639;22;20218;-86
2022/06/11 01:14:46;;;;;;;2.00;1.80;;;;;;;;;;6275460;22;20516;-86
2022/06/11 01:17:22;;;;;;;1.98;1.77;;;;;;;;;;6274911;22;20187;-86
2022/06/11 01:20:09;;;;;;;1.90;1.80;;;;;;;;;;6275942;22;20168;-86
2022/06/11 01:22:44;;;;;;;1.75;1.65;;;;;;;;;;6275039;22;20194;-87
2022/06/11 01:25:18;;;;;;;2.10;1.90;;;;;;;;;;6275447;22;20170;-87
2022/06/11 01:27:55;;;;;;;1.88;1.77;;;;;;;;;;6275104;22;20164;-87
2022/06/11 01:30:25;;;;;;;2.10;1.90;;;;;;;;;;6275043;22;20164;-87
2022/06/11 01:32:58;;;;;;;2.53;1.90;;;;;;;;;;6275115;22;20174;-87
2022/06/11 01:35:32;;;;;;;2.55;2.00;;;;;;;;;;6275301;22;20186;-87
2022/06/11 01:38:03;;;;;;;2.33;1.90;;;;;;;;;;6275006;22;20168;-86
2022/06/11 01:40:38;;;;;;;1.88;1.73;;;;;;;;;;6274760;22;20200;-86
2022/06/11 01:43:12;;;;;;;1.80;1.70;;;;;;;;;;6275153;22;20233;-87
2022/06/11 01:45:41;;;;;;;2.03;1.80;;;;;;;;;;6274950;22;20559;-86
2022/06/11 01:48:11;;;;;;;1.88;1.73;;;;;;;;;;6274892;22;20176;-87
2022/06/11 01:50:40;;;;;;;2.10;1.80;;;;;;;;;;6274962;22;20245;-86
2022/06/11 01:53:20;;;;;;;1.90;1.80;;;;;;;;;;6275521;22;20204;-87
2022/06/11 01:56:04;;;;;;;1.70;1.60;;;;;;;;;;6274988;22;20168;-87
2022/06/11 01:58:46;;;;;;;2.00;1.90;;;;;;;;;;6275525;22;20174;-86
2022/06/11 02:01:18;;;;;;;2.30;2.00;;;;;;;;;;6273807;22;20218;-86
2022/06/11 02:03:52;;;;;;;1.92;1.83;;;;;;;;;;6275054;22;20180;-86
2022/06/11 02:06:25;;;;;;;2.10;1.90;;;;;;;;;;6275016;22;20217;-86
2022/06/11 02:08:57;;;;;;;2.25;2.05;;;;;;;;;;6275074;22;20612;-86
2022/06/11 02:11:27;;;;;;;2.58;1.90;;;;;;;;;;6274508;22;20192;-86
2022/06/11 02:13:56;;;;;;;2.03;1.80;;;;;;;;;;6275127;22;20163;-87
2022/06/11 02:16:28;;;;;;;1.83;1.70;;;;;;;;;;6274504;22;20172;-87
2022/06/11 02:18:59;;;;;;;2.85;1.88;;;;;;;;;;6274915;22;20164;-86
2022/06/11 02:21:28;;;;;;;1.80;1.70;;;;;;;;;;6274866;22;20188;-86
2022/06/11 02:23:56;;;;;;;1.90;1.80;;;;;;;;;;6274598;22;20211;-87
2022/06/11 02:26:25;;;;;;;1.83;1.73;;;;;;;;;;6274057;22;20194;-86
2022/06/11 02:28:53;;;;;;;1.73;1.63;;;;;;;;;;6274250;22;20183;-87
2022/06/11 02:31:24;;;;;;;2.00;1.88;;;;;;;;;;6274399;22;20192;-86
2022/06/11 02:33:53;;;;;;;2.10;1.98;;;;;;;;;;6273592;22;20164;-86
2022/06/11 02:36:22;;;;;;;2.00;1.80;;;;;;;;;;6274453;22;20174;-87
2022/06/11 02:38:50;;;;;;;2.00;1.90;;;;;;;;;;6275248;22;20555;-87
2022/06/11 02:41:19;;;;;;;1.80;1.70;;;;;;;;;;6274750;22;20229;-86
2022/06/11 02:43:47;;;;;;;2.20;1.92;;;;;;;;;;6274397;22;20188;-87
2022/06/11 02:49:01;;;;;;;2.33;1.80;;;;;;;;;;6274778;22;20231;-87
2022/06/11 02:51:30;;;;;;;1.90;1.80;;;;;;;;;;6274504;22;20219;-87
2022/06/11 02:53:58;;;;;;;1.98;1.85;;;;;;;;;;6274527;22;20219;-87
2022/06/11 02:56:25;;;;;;;2.03;1.83;;;;;;;;;;6276148;22;20247;-86
2022/06/11 02:58:53;;;;;;;2.28;2.00;;;;;;;;;;6276414;22;20202;-86
2022/06/11 03:01:20;;;;;;;1.98;1.85;;;;;;;;;;6276810;22;20199;-86
2022/06/11 03:03:49;;;;;;;1.92;1.83;;;;;;;;;;6276559;22;20203;-86
2022/06/11 03:06:18;;;;;;;2.17;1.98;;;;;;;;;;6276386;22;20172;-86
2022/06/11 03:08:45;;;;;;;2.67;2.00;;;;;;;;;;6276137;22;20178;-86
2022/06/11 03:11:13;;;;;;;2.17;1.98;;;;;;;;;;6276843;22;20214;-86
2022/06/11 03:13:40;;;;;;;2.00;1.90;;;;;;;;;;6276762;22;20243;-86
2022/06/11 03:16:08;;;;;;;1.75;1.65;;;;;;;;;;6276233;22;20196;-86
2022/06/11 03:18:35;;;;;;;2.83;2.08;;;;;;;;;;6276924;22;20604;-86
2022/06/11 03:21:03;;;;;;;1.88;1.77;;;;;;;;;;6276488;22;20191;-86
2022/06/11 03:23:31;;;;;;;1.92;1.83;;;;;;;;;;6276160;22;20209;-86
2022/06/11 03:25:59;;;;;;;1.98;1.83;;;;;;;;;;6276502;22;20182;-87
2022/06/11 03:28:28;;;;;;;2.00;1.90;;;;;;;;;;6276078;22;20170;-87
2022/06/11 03:30:56;;;;;;;2.05;1.70;;;;;;;;;;6276272;22;20188;-87
2022/06/11 03:33:24;;;;;;;2.13;2.03;;;;;;;;;;6276065;22;20175;-87
2022/06/11 03:35:52;;;;;;;2.28;2.08;;;;;;;;;;6276389;22;20175;-87
2022/06/11 03:38:20;;;;;;;1.98;1.88;;;;;;;;;;6276137;22;20176;-86
2022/06/11 03:40:49;;;;;;;2.03;1.92;;;;;;;;;;6275570;22;20215;-86
2022/06/11 03:43:16;;;;;;;2.25;1.85;;;;;;;;;;6276103;22;20246;-86
2022/06/11 03:45:44;;;;;;;1.77;1.67;;;;;;;;;;6275945;22;20527;-86
2022/06/11 03:48:12;;;;;;;1.80;1.70;;;;;;;;;;6275841;22;20172;-87
2022/06/11 03:50:40;;;;;;;1.92;1.83;;;;;;;;;;6275737;22;20195;-87
2022/06/11 03:53:08;;;;;;;3.15;1.80;;;;;;;;;;6276271;22;20168;-86
2022/06/11 03:55:36;;;;;;;1.90;1.80;;;;;;;;;;6276395;22;20183;-86
2022/06/11 03:58:05;;;;;;;1.83;1.73;;;;;;;;;;6275751;22;20172;-86
2022/06/11 04:03:19;;;;;;;1.80;1.70;;;;;;;;;;6276195;22;20187;-86
2022/06/11 04:05:46;;;;;;;2.10;1.90;;;;;;;;;;6275675;22;20172;-86
2022/06/11 04:08:14;;;;;;;1.95;1.85;;;;;;;;;;6275763;22;20238;-87
2022/06/11 04:10:42;;;;;;;2.38;2.17;;;;;;;;;;6276138;22;20192;-87
2022/06/11 04:13:11;;;;;;;2.00;1.90;;;;;;;;;;6276050;22;20222;-87
2022/06/11 04:15:40;;;;;;;1.90;1.80;;;;;;;;;;6275951;22;20243;-87
2022/06/11 04:18:07;;;;;;;2.05;1.92;;;;;;;;;;6275908;22;20172;-87
2022/06/11 04:20:35;;;;;;;2.08;1.75;;;;;;;;;;6276349;22;20214;-87
2022/06/11 04:23:02;;;;;;;2.20;2.00;;;;;;;;;;6275505;22;20184;-87
2022/06/11 04:25:29;;;;;;;2.38;2.17;;;;;;;;;;6276077;22;20187;-87
2022/06/11 04:27:57;;;;;;;2.15;1.92;;;;;;;;;;6275585;22;20172;-86
2022/06/11 04:30:26;;;;;;;2.22;2.00;;;;;;;;;;6275994;22;20191;-86
2022/06/11 04:32:53;;;;;;;2.30;2.03;;;;;;;;;;6276077;22;20239;-86
2022/06/11 04:35:21;;;;;;;1.70;1.60;;;;;;;;;;6276133;22;20164;-86
2022/06/11 04:37:48;;;;;;;1.95;1.85;;;;;;;;;;6275226;22;20206;-87
2022/06/11 04:40:17;;;;;;;2.10;2.00;;;;;;;;;;6274548;22;20183;-86
2022/06/11 04:42:44;;;;;;;2.22;2.03;;;;;;;;;;6275576;22;20175;-86
2022/06/11 04:45:13;;;;;;;2.33;2.10;;;;;;;;;;6276010;22;20175;-86
2022/06/11 04:47:41;;;;;;;1.92;1.83;;;;;;;;;;6275224;22;20195;-86
2022/06/11 04:50:19;;;;;;;2.42;1.98;;;;;;;;;;6275247;22;20234;-86
2022/06/11 04:52:47;;;;;;;2.15;1.95;;;;;;;;;;6275781;22;20168;-86
2022/06/11 04:55:21;;;;;;;2.20;2.10;;;;;;;;;;6275807;22;20195;-86
2022/06/11 04:57:54;;;;;;;2.10;1.80;;;;;;;;;;6275458;22;20636;-87
2022/06/11 05:00:22;;;;;;;1.92;1.83;;;;;;;;;;6275519;22;20215;-87
2022/06/11 05:02:51;;;;;;;1.88;1.77;;;;;;;;;;6275985;22;20175;-87
2022/06/11 05:05:19;;;;;;;2.30;2.10;;;;;;;;;;6275447;22;20251;-87
2022/06/11 05:07:46;;;;;;;2.10;2.00;;;;;;;;;;6275430;22;20169;-86
2022/06/11 05:10:15;;;;;;;2.38;2.17;;;;;;;;;;6275176;22;20172;-86
2022/06/11 05:12:42;;;;;;;2.00;1.83;;;;;;;;;;6275963;22;20190;-87
2022/06/11 05:15:10;;;;;;;2.13;1.90;;;;;;;;;;6275470;22;20198;-87
2022/06/11 05:17:37;;;;;;;2.30;2.10;;;;;;;;;;6274811;22;20171;-88
2022/06/11 05:20:07;;;;;;;2.00;1.88;;;;;;;;;;6275830;22;20224;-87
2022/06/11 05:22:35;;;;;;;1.90;1.80;;;;;;;;;;6275714;22;20624;-87
2022/06/11 05:25:02;;;;;;;1.98;1.83;;;;;;;;;;6275222;22;20195;-87
2022/06/11 05:27:29;;;;;;;2.80;1.88;;;;;;;;;;6275485;22;20183;-87
2022/06/11 05:29:59;;;;;;;2.00;1.88;;;;;;;;;;6275544;22;20176;-87
2022/06/11 05:32:29;;;;;;;2.53;1.77;;;;;;;;;;6275084;22;20664;-87
2022/06/11 05:34:57;;;;;;;2.00;1.90;;;;;;;;;;6275392;22;20164;-87
2022/06/11 05:37:25;;;;;;;2.15;1.80;;;;;;;;;;6274650;22;20172;-86
2022/06/11 05:39:53;;;;;;;1.90;1.80;;;;;;;;;;6274682;22;20251;-87
2022/06/11 05:42:22;;;;;;;1.83;1.73;;;;;;;;;;6273968;22;20206;-87
2022/06/11 05:44:49;;;;;;;2.03;1.92;;;;;;;;;;6274153;22;20275;-88
2022/06/11 05:47:18;;;;;;;1.77;1.67;;;;;;;;;;6274519;22;20183;-87
2022/06/11 05:49:48;;;;;;;2.20;2.00;;;;;;;;;;6276130;22;20242;-87
2022/06/11 05:52:17;;;;;;;1.77;1.67;;;;;;;;;;6276014;22;20253;-87
2022/06/11 05:54:47;;;;;;;2.95;1.90;;;;;;;;;;6274863;22;20195;-87
2022/06/11 05:57:15;;;;;;;1.83;1.73;;;;;;;;;;6274261;22;20259;-88
2022/06/11 05:59:44;;;;;;;2.30;2.10;;;;;;;;;;6274866;22;20202;-87
2022/06/11 06:02:13;;;;;;;2.13;2.00;;;;;;;;;;6274597;22;20199;-87
2022/06/11 06:04:40;;;;;;;2.10;1.92;;;;;;;;;;6274448;22;20196;-87
2022/06/11 06:07:08;;;;;;;1.92;1.83;;;;;;;;;;6274608;22;20179;-86
2022/06/11 06:09:36;;;;;;;2.10;2.00;;;;;;;;;;6275333;22;20178;-87
2022/06/11 06:12:05;;;;;;;1.92;1.80;;;;;;;;;;6275222;22;20198;-87
2022/06/11 06:14:33;;;;;;;1.88;1.77;;;;;;;;;;6274496;22;20167;-87
2022/06/11 06:17:03;;;;;;;2.20;2.00;;;;;;;;;;6275049;22;20195;-87
2022/06/11 06:19:30;;;;;;;1.70;1.60;;;;;;;;;;6274809;22;20176;-87
2022/06/11 06:21:58;;;;;;;1.95;1.85;;;;;;;;;;6274261;22;20196;-87
2022/06/11 06:24:25;;;;;;;2.03;1.92;;;;;;;;;;6274630;22;20188;-88
2022/06/11 06:26:52;;;;;;;2.10;2.00;;;;;;;;;;6274815;22;20179;-87
2022/06/11 06:29:21;;;;;;;1.90;1.80;;;;;;;;;;6276069;22;20191;-87
2022/06/11 06:31:49;;;;;;;2.40;1.80;;;;;;;;;;6276447;22;20192;-87
2022/06/11 06:34:16;;;;;;;1.85;1.75;;;;;;;;;;6276245;22;20195;-88
2022/06/11 06:36:43;;;;;;;1.75;1.65;;;;;;;;;;6276799;22;20239;-87
2022/06/11 06:39:12;;;;;;;2.00;1.85;;;;;;;;;;6276379;22;20178;-87
2022/06/11 06:41:44;;;;;;;2.00;1.83;;;;;;;;;;6279273;22;20673;-86
2022/06/11 06:44:11;;;;;;;1.92;1.80;;;;;;;;;;6276437;22;20180;-86
2022/06/11 06:46:41;;;;;;;1.83;1.73;;;;;;;;;;6273996;22;20175;-87
2022/06/11 06:49:20;;;;;;;1.80;1.65;;;;;;;;;;6274513;22;20184;-86
2022/06/11 06:52:05;;;;;;;1.77;1.67;;;;;;;;;;6275559;22;20191;-86
2022/06/11 06:54:33;;;;;;;1.85;1.75;;;;;;;;;;6277481;22;20175;-86
2022/06/11 06:57:04;;;;;;;1.95;1.80;;;;;;;;;;6276863;22;20176;-86
2022/06/11 06:59:32;;;;;;;2.08;1.65;;;;;;;;;;6277121;22;20172;-87
2022/06/11 07:02:05;;;;;;;1.70;1.60;;;;;;;;;;6278687;22;20196;-88
2022/06/11 07:04:35;;;;;;;1.80;1.70;;;;;;;;;;6291789;22;20191;-85
2022/06/11 07:07:04;;;;;;;2.10;1.90;;;;;;;;;;6295222;22;20171;-86
2022/06/11 07:09:33;;;;;;;1.73;1.63;;;;;;;;;;6287307;22;20160;-85
2022/06/11 07:12:03;;;;;;;1.90;1.80;;;;;;;;;;6277696;22;20215;-86
2022/06/11 07:14:30;;;;;;;1.83;1.73;;;;;;;;;;6277620;22;20196;-87
2022/06/11 07:17:05;;;;;;;1.73;1.58;;;;;;;;;;6276845;22;20175;-85
2022/06/11 07:19:34;;;;;;;1.70;1.60;;;;;;;;;;6276508;22;20163;-87
2022/06/11 07:22:19;;;;;;;1.70;1.60;;;;;;;;;;6275976;22;20204;-86
2022/06/11 07:24:58;;;;;;;1.83;1.73;;;;;;;;;;6277333;22;20191;-86
2022/06/11 07:27:27;;;;;;;2.28;2.08;;;;;;;;;;6276590;22;20221;-86
2022/06/11 07:29:56;;;;;;;1.90;1.80;;;;;;;;;;6277588;22;20179;-85
2022/06/11 07:32:38;;;;;;;2.78;1.50;;;;;;;;;;6276901;22;20192;-90
2022/06/11 07:35:06;;;;;;;2.17;1.70;;;;;;;;;;6276849;22;20242;-86
2022/06/11 07:37:48;;;;;;;3.17;1.88;;;;;;;;;;6276861;22;20243;-88
2022/06/11 07:40:15;;;;;;;2.08;1.63;;;;;;;;;;6276797;22;20178;-87
2022/06/11 07:42:43;;;;;;;2.05;1.92;;;;;;;;;;6276408;22;20200;-86
2022/06/11 07:45:13;;;;;;;1.83;1.73;;;;;;;;;;6275482;22;20192;-87
2022/06/11 07:48:00;;;;;;;2.30;2.10;;;;;;;;;;6275904;22;20190;-86
2022/06/11 07:50:29;;;;;;;3.72;2.10;;;;;;;;;;6276133;22;20172;-88
2022/06/11 07:52:59;;;;;;;3.10;2.05;;;;;;;;;;6276355;22;20191;-87
2022/06/11 07:55:37;;;;;;;3.38;1.80;;;;;;;;;;6276132;22;20195;-88
2022/06/11 07:58:05;;;;;;;3.03;1.80;;;;;;;;;;6275851;22;20175;-86
2022/06/11 08:00:35;;;;;;;1.77;1.58;;;;;;;;;;6275779;22;20175;-87
2022/06/11 08:03:19;;;;;;;3.05;2.00;;;;;;;;;;6275606;22;20167;-88
2022/06/11 08:05:53;;;;;;;1.88;1.75;;;;;;;;;;6275359;22;20278;-87
2022/06/11 08:08:20;;;;;;;1.95;1.77;;;;;;;;;;6274778;22;20176;-88
2022/06/11 08:10:49;;;;;;;2.22;1.83;;;;;;;;;;6275545;22;20178;-88
2022/06/11 08:13:17;;;;;;;2.00;1.67;;;;;;;;;;6275306;22;20168;-88
2022/06/11 08:15:48;;;;;;;2.00;1.80;;;;;;;;;;6275459;22;20188;-88
2022/06/11 08:18:15;;;;;;;7.10;2.25;;;;;;;;;;6275303;22;20179;-86
2022/06/11 08:20:51;;;;;;;7.30;2.50;;;;;;;;;;6275337;22;20229;-90
2022/06/11 08:23:23;;;;;;;9.13;2.13;;;;;;;;;;6277411;22;20175;-86
2022/06/11 08:25:59;;;;;;;3.75;1.95;;;;;;;;;;6275855;22;20188;-88
2022/06/11 08:28:27;;;;;;;4.15;2.30;;;;;;;;;;6276599;22;20168;-88
2022/06/11 08:30:54;;;;;;;3.20;1.95;;;;;;;;;;6274907;22;20175;-86
2022/06/11 08:33:22;;;;;;;4.45;2.20;;;;;;;;;;6276673;22;20168;-87
2022/06/11 08:35:49;;;;;;;4.10;1.88;;;;;;;;;;6275645;22;20168;-88
2022/06/11 08:38:17;;;;;;;3.72;2.00;;;;;;;;;;6276430;22;20167;-87
2022/06/11 08:40:49;;;;;;;3.20;1.88;;;;;;;;;;6277409;22;20172;-87
2022/06/11 08:43:19;;;;;;;3.70;2.00;;;;;;;;;;6278754;22;20229;-87
2022/06/11 08:45:48;;;;;;;3.15;1.95;;;;;;;;;;6276673;22;20195;-87
2022/06/11 08:48:17;;;;;;;3.85;1.90;;;;;;;;;;6278147;22;20261;-87
2022/06/11 08:50:47;;;;;;;3.13;1.90;;;;;;;;;;6277826;22;20168;-87
2022/06/11 08:53:27;;;;;;;4.03;2.00;;;;;;;;;;6276884;22;20172;-87
2022/06/11 08:55:56;;;;;;;3.22;1.92;;;;;;;;;;6276373;22;20164;-89
2022/06/11 08:58:29;;;;;;;4.03;1.98;;;;;;;;;;6276884;22;20168;-87
2022/06/11 09:01:00;;;;;;;5.07;1.95;;;;;;;;;;6276916;22;20167;-87
2022/06/11 09:06:24;;;;;;;2.08;1.83;;;;;;;;;;6264367;22;20195;-88
2022/06/11 09:09:00;;;;;;;3.05;1.85;;;;;;;;;;6278707;22;20235;-87
2022/06/11 09:11:38;;;;;;;4.70;1.80;;;;;;;;;;6277284;22;20663;-87
2022/06/11 09:14:20;;;;;;;2.45;1.73;;;;;;;;;;6277339;22;20164;-88
2022/06/11 09:17:05;;;;;;;2.33;1.90;;;;;;;;;;6275484;22;20166;-87
2022/06/11 09:19:38;;;;;;;2.92;2.13;;;;;;;;;;6276646;22;20171;-87
2022/06/11 09:22:19;;;;;;;2.90;1.80;;;;;;;;;;6276593;22;20195;-87
2022/06/11 09:24:54;;;;;;;2.92;1.95;;;;;;;;;;6277806;22;20180;-86
2022/06/11 09:27:25;;;;;;;2.67;1.80;;;;;;;;;;6275641;22;20622;-88
2022/06/11 09:30:12;;;;;;;2.47;2.20;;;;;;;;;;6275333;22;20164;-88
2022/06/11 09:32:43;;;;;;;3.78;2.45;;;;;;;;;;6275526;22;20214;-87
2022/06/11 09:35:14;;;;;;;3.10;2.20;;;;;;;;;;6275534;22;20604;-87
2022/06/11 09:37:48;;;;;;;3.45;2.10;;;;;;;;;;6275488;22;20246;-87
2022/06/11 09:40:21;;;;;;;2.90;1.80;;;;;;;;;;6275527;22;20172;-87
2022/06/11 09:42:56;;;;;;;2.50;2.00;;;;;;;;;;6275181;22;20206;-88
2022/06/11 09:45:32;;;;;;;2.35;1.80;;;;;;;;;;6275521;22;20188;-88
2022/06/11 09:48:07;;;;;;;2.92;1.73;;;;;;;;;;6275235;22;20171;-88
2022/06/11 09:50:49;;;;;;;2.10;1.67;;;;;;;;;;6275010;22;20174;-88
2022/06/11 09:53:39;;;;;;;2.88;1.92;;;;;;;;;;6274827;22;20225;-87
2022/06/11 09:56:12;;;;;;;2.70;1.90;;;;;;;;;;6274938;22;20302;-87
2022/06/11 09:58:47;;;;;;;2.83;2.03;;;;;;;;;;6276735;22;20207;-87
2022/06/11 10:01:17;;;;;;;2.45;1.90;;;;;;;;;;6274537;22;20549;-88
2022/06/11 10:03:50;;;;;;;2.25;1.80;;;;;;;;;;6274813;22;20175;-87
2022/06/11 10:06:20;;;;;;;2.30;1.65;;;;;;;;;;6274997;22;20184;-89
2022/06/11 10:08:50;;;;;;;2.92;1.95;;;;;;;;;;6275539;22;20230;-87
2022/06/11 10:11:20;;;;;;;3.05;1.85;;;;;;;;;;6274475;22;20242;-89
2022/06/11 10:13:51;;;;;;;2.75;1.95;;;;;;;;;;6276294;22;20207;-89
2022/06/11 10:16:35;;;;;;;3.10;1.90;;;;;;;;;;6276484;22;20175;-88
2022/06/11 10:19:11;;;;;;;3.92;2.10;;;;;;;;;;6276940;22;20229;-88
2022/06/11 10:21:41;;;;;;;3.40;1.90;;;;;;;;;;6275820;22;20211;-87
2022/06/11 10:27:19;;;;;;;2.22;2.03;;;;;;;;;;6267837;22;20168;-88
2022/06/11 10:29:50;;;;;;;5.90;3.83;;;;;;;;;;6275499;22;20171;-88
2022/06/11 10:32:20;;;;;;;8.27;5.15;;;;;;;;;;6275258;22;20199;-88
2022/06/11 10:34:51;;;;;;;30.30;21.48;;;;;;;;;;6274997;22;20217;-89
2022/06/11 10:37:21;;;;;;;36.15;27.52;;;;;;;;;;6274049;22;20175;-88
2022/06/11 10:39:51;;;;;;;30.52;21.92;;;;;;;;;;6274947;22;20176;-89
2022/06/11 10:42:21;;;;;;;25.27;18.83;;;;;;;;;;6274755;22;20236;-88
2022/06/11 10:44:51;;;;;;;21.02;14.55;;;;;;;;;;6274774;22;20188;-90
2022/06/11 10:47:23;;;;;;;15.25;12.13;;;;;;;;;;6274891;22;20172;-88
2022/06/11 10:49:52;;;;;;;11.27;8.27;;;;;;;;;;6275801;22;20175;-87
2022/06/11 10:52:33;;;;;;;8.00;5.65;;;;;;;;;;6277926;22;20188;-86
2022/06/11 10:55:00;;;;;;;3.45;2.10;;;;;;;;;;6278390;22;20159;-85
2022/06/11 10:57:29;;;;;;;4.28;2.67;;;;;;;;;;6279242;22;20192;-85
2022/06/11 11:16:08;;;;;;;2.97;1.95;;;;;;;;;;6071223;23;20208;-87
2022/06/11 11:18:42;;;;;;;3.10;1.90;;;;;;;;;;6225280;22;20266;-88
2022/06/11 11:21:18;;;;;;;3.40;2.55;;;;;;;;;;6277088;22;20218;-87
2022/06/11 11:23:50;;;;;;;3.90;2.40;;;;;;;;;;6277709;22;20168;-87
2022/06/11 11:26:36;;;;;;;;;;;;;;;;;;;;;
2022/06/11 11:29:14;;;;;;;4.00;2.30;;;;;;;;;;6277592;22;20145;-88
2022/06/11 11:31:46;;;;;;;3.70;2.38;;;;;;;;;;6277048;22;20191;-87
2022/06/11 11:34:25;;;;;;;3.33;2.10;;;;;;;;;;6277306;22;20237;-88
2022/06/11 11:48:53;;;;;;;2.95;2.10;;;;;;;;;;6213384;23;20165;-89
2022/06/11 11:51:29;;;;;;;2.95;2.20;;;;;;;;;;6210708;23;20193;-88
2022/06/11 11:54:03;;;;;;;2.63;2.08;;;;;;;;;;6213111;23;20176;-87
2022/06/11 11:59:56;;;;;;;2.78;2.15;;;;;;;;;;6115160;23;20191;-87
2022/06/11 12:39:12;;;;;;;3.08;2.00;;;;;;;;;;6298828;22;20168;-86
2022/06/11 13:39:38;;;;;;;2.95;2.30;;;;;;;;;;5980348;24;20161;-88
2022/06/11 13:50:20;;;;;;;2.30;2.10;;;;;;;;;;6278150;22;20237;-88
2022/06/11 14:04:43;;;;;;;3.35;2.60;;;;;;;;;;6276360;22;20227;-93
2022/06/11 18:19:07;;;;;;;3.97;3.58;;;;;;;;;;6277521;22;20206;-91
2022/06/11 18:44:33;;;;;;;3.58;2.95;;;;;;;;;;6272037;22;20636;-88
2022/06/11 18:47:05;;;;;;;3.45;3.15;;;;;;;;;;6275532;22;20188;-85
2022/06/11 18:49:47;;;;;;;4.40;3.20;;;;;;;;;;6277649;22;20166;-85
2022/06/11 18:52:16;;;;;;;3.67;3.20;;;;;;;;;;6276916;22;20182;-83
2022/06/11 18:54:57;;;;;;;3.45;2.80;;;;;;;;;;6276787;22;20191;-87
2022/06/11 18:57:44;;;;;;;3.63;3.05;;;;;;;;;;6276226;22;20168;-86
2022/06/11 19:00:30;;;;;;;;;;;;;;;;;;;;;
2022/06/11 19:02:59;;;;;;;3.00;2.70;;;;;;;;;;6275496;22;20172;-86
2022/06/11 19:08:18;;;;;;;3.17;2.90;;;;;;;;;;6278289;22;20210;-86
2022/06/11 19:14:30;;;;;;;3.40;2.60;;;;;;;;;;6275683;22;20168;-89
2022/06/11 19:17:03;;;;;;;2.70;2.47;;;;;;;;;;6275635;22;20172;-88
2022/06/11 19:19:35;;;;;;;3.25;2.95;;;;;;;;;;6276542;22;20182;-89
2022/06/11 19:25:14;;;;;;;2.90;2.60;;;;;;;;;;6274548;22;20196;-89
2022/06/11 19:27:53;;;;;;;4.10;3.13;;;;;;;;;;6274963;22;20187;-89
2022/06/11 19:30:24;;;;;;;3.00;2.67;;;;;;;;;;6276585;22;20231;-87
2022/06/11 19:33:00;;;;;;;3.28;2.97;;;;;;;;;;6275820;22;20171;-88
2022/06/11 19:38:25;;;;;;;3.35;3.08;;;;;;;;;;6273787;22;20179;-87
2022/06/11 19:40:54;;;;;;;3.72;3.40;;;;;;;;;;6276817;22;20168;-87
2022/06/11 19:43:23;;;;;;;3.55;3.25;;;;;;;;;;6276568;22;20190;-88
2022/06/11 19:45:55;;;;;;;4.97;3.90;;;;;;;;;;6276242;22;20191;-87
2022/06/11 19:48:31;;;;;;;5.07;4.50;;;;;;;;;;6276011;22;20160;-87
2022/06/11 19:51:02;;;;;;;5.97;4.10;;;;;;;;;;6276323;22;20167;-88
2022/06/11 19:56:17;;;;;;;4.35;3.97;;;;;;;;;;6273029;22;20195;-89
2022/06/11 20:01:44;;;;;;;4.68;4.28;;;;;;;;;;6273826;22;20194;-88
2022/06/11 20:04:23;;;;;;;5.30;4.15;;;;;;;;;;6278400;22;20195;-84
2022/06/11 20:06:52;;;;;;;4.18;3.78;;;;;;;;;;6279199;22;20195;-84
2022/06/11 20:09:23;;;;;;;4.75;4.35;;;;;;;;;;6296282;22;20202;-85
2022/06/11 20:11:52;;;;;;;4.95;4.47;;;;;;;;;;6297262;22;20176;-84
2022/06/11 20:14:19;;;;;;;5.07;4.40;;;;;;;;;;6277672;22;20192;-84
2022/06/11 20:16:50;;;;;;;5.35;4.40;;;;;;;;;;6274759;22;20184;-84
2022/06/11 20:19:21;;;;;;;5.30;4.28;;;;;;;;;;6275469;22;20166;-84
2022/06/11 20:21:48;;;;;;;5.60;5.00;;;;;;;;;;6273785;22;20175;-84
2022/06/11 20:24:16;;;;;;;7.20;5.18;;;;;;;;;;6276368;22;20214;-84
2022/06/11 20:26:43;;;;;;;6.35;5.35;;;;;;;;;;6275983;22;20184;-84
2022/06/11 20:29:11;;;;;;;6.78;6.07;;;;;;;;;;6276110;22;20198;-84
2022/06/11 20:31:38;;;;;;;7.25;6.55;;;;;;;;;;6275966;22;20171;-84
2022/06/11 20:34:07;;;;;;;6.70;6.10;;;;;;;;;;6276347;22;20226;-82
2022/06/11 20:39:19;;;;;;;6.95;6.25;;;;;;;;;;6276259;22;20220;-82
2022/06/11 20:41:51;;;;;;;5.32;4.82;;;;;;;;;;6276630;22;20563;-83
2022/06/11 20:44:22;;;;;;;5.50;4.88;;;;;;;;;;6278107;22;20222;-82
2022/06/11 20:46:50;;;;;;;5.43;4.93;;;;;;;;;;6276904;22;20180;-83
2022/06/11 20:52:14;;;;;;;5.15;4.60;;;;;;;;;;6277655;22;20160;-83
2022/06/11 20:54:41;;;;;;;5.63;4.82;;;;;;;;;;6277881;22;20284;-82
2022/06/11 20:57:09;;;;;;;4.65;4.20;;;;;;;;;;6277474;22;20168;-82
2022/06/11 20:59:39;;;;;;;5.00;4.22;;;;;;;;;;6278161;22;20176;-83
2022/06/11 21:02:06;;;;;;;4.88;4.43;;;;;;;;;;6277342;22;20172;-81
2022/06/11 21:04:42;;;;;;;4.93;4.43;;;;;;;;;;6278319;22;20192;-83
2022/06/11 21:09:55;;;;;;;5.35;4.85;;;;;;;;;;6275512;22;20201;-84
2022/06/11 21:12:23;;;;;;;4.85;4.45;;;;;;;;;;6276057;22;20172;-85
2022/06/11 21:14:50;;;;;;;5.70;5.07;;;;;;;;;;6275750;22;20195;-85
2022/06/11 21:23:37;;;;;;;;;;;;;;;;;;;;;
2022/06/11 21:26:06;;;;;;;5.55;5.05;;;;;;;;;;6274945;22;20199;-86
2022/06/11 21:28:34;;;;;;;5.25;4.72;;;;;;;;;;6274655;22;20172;-86
2022/06/11 21:31:08;;;;;;;5.35;4.85;;;;;;;;;;6275251;22;20182;-86
2022/06/11 21:33:38;;;;;;;4.85;4.35;;;;;;;;;;6275043;22;20655;-87
2022/06/11 21:38:53;;;;;;;5.20;4.70;;;;;;;;;;6273056;22;20172;-85
2022/06/11 21:44:29;;;;;;;5.50;5.00;;;;;;;;;;6211649;23;20191;-85
2022/06/11 21:47:01;;;;;;;4.80;4.40;;;;;;;;;;6261254;22;20221;-84
2022/06/11 21:49:29;;;;;;;5.50;4.30;;;;;;;;;;6275522;22;20165;-84
2022/06/11 21:52:00;;;;;;;6.28;4.97;;;;;;;;;;6275373;22;20167;-84
2022/06/11 21:54:31;;;;;;;5.43;4.93;;;;;;;;;;6275926;22;20262;-84
2022/06/11 21:56:59;;;;;;;6.40;4.70;;;;;;;;;;6275540;22;20175;-84
2022/06/11 21:59:29;;;;;;;5.10;4.70;;;;;;;;;;6274842;22;20168;-84
2022/06/11 22:01:57;;;;;;;5.40;4.90;;;;;;;;;;6275232;22;20179;-85
2022/06/11 22:04:27;;;;;;;5.15;4.50;;;;;;;;;;6275157;22;20194;-84
2022/06/11 22:06:55;;;;;;;4.88;4.40;;;;;;;;;;6275416;22;20211;-83
2022/06/11 22:09:22;;;;;;;4.88;4.47;;;;;;;;;;6275854;22;20170;-84
2022/06/11 22:11:50;;;;;;;4.90;4.50;;;;;;;;;;6275502;22;20640;-83
2022/06/11 22:14:20;;;;;;;5.10;4.60;;;;;;;;;;6275763;22;20211;-83
2022/06/11 22:16:47;;;;;;;5.05;4.60;;;;;;;;;;6276147;22;20225;-84
2022/06/11 22:19:22;;;;;;;4.80;4.40;;;;;;;;;;6276508;22;20241;-83
2022/06/11 22:21:52;;;;;;;5.13;4.63;;;;;;;;;;6276461;22;20217;-84
2022/06/11 22:24:20;;;;;;;5.00;4.53;;;;;;;;;;6275558;22;20196;-84
2022/06/11 22:26:49;;;;;;;4.70;4.30;;;;;;;;;;6275308;22;20199;-84
2022/06/11 22:29:17;;;;;;;5.13;4.63;;;;;;;;;;6276025;22;20171;-83
2022/06/11 22:31:51;;;;;;;5.55;5.03;;;;;;;;;;6275891;22;20206;-83
2022/06/11 22:34:21;;;;;;;5.32;4.80;;;;;;;;;;6275454;22;20188;-83
2022/06/11 22:36:51;;;;;;;6.00;5.50;;;;;;;;;;6275212;22;20164;-83
2022/06/11 22:39:18;;;;;;;5.20;4.70;;;;;;;;;;6275365;22;20194;-85
2022/06/11 22:41:47;;;;;;;5.40;4.90;;;;;;;;;;6275168;22;20175;-84
2022/06/11 22:44:14;;;;;;;5.60;5.00;;;;;;;;;;6275489;22;20188;-84
2022/06/11 22:46:42;;;;;;;5.70;5.20;;;;;;;;;;6275020;22;20223;-84
2022/06/11 22:49:12;;;;;;;4.97;4.60;;;;;;;;;;6275663;22;20174;-84
2022/06/11 22:51:40;;;;;;;5.47;4.85;;;;;;;;;;6276426;22;20246;-84
2022/06/11 22:54:10;;;;;;;5.20;4.80;;;;;;;;;;6275043;22;20172;-84
2022/06/11 22:56:37;;;;;;;5.28;4.78;;;;;;;;;;6276270;22;20243;-84
2022/06/11 22:59:13;;;;;;;5.47;4.97;;;;;;;;;;6275571;22;20168;-84
2022/06/11 23:01:41;;;;;;;6.47;4.63;;;;;;;;;;6276113;22;20163;-84
2022/06/11 23:04:08;;;;;;;4.72;4.35;;;;;;;;;;6275802;22;20179;-84
2022/06/11 23:06:37;;;;;;;5.25;4.85;;;;;;;;;;6275415;22;20198;-84
2022/06/11 23:09:07;;;;;;;5.18;4.65;;;;;;;;;;6276278;22;20168;-84
2022/06/11 23:11:35;;;;;;;5.18;4.72;;;;;;;;;;6276579;22;20172;-84
2022/06/11 23:14:10;;;;;;;4.70;4.30;;;;;;;;;;6277200;22;20171;-84
2022/06/11 23:16:38;;;;;;;5.22;4.68;;;;;;;;;;6277350;22;20171;-84
2022/06/11 23:19:05;;;;;;;5.22;4.72;;;;;;;;;;6277852;22;20174;-84
2022/06/11 23:21:35;;;;;;;5.00;4.60;;;;;;;;;;6276861;22;20175;-86
2022/06/11 23:24:08;;;;;;;5.15;4.75;;;;;;;;;;6275698;22;20172;-86
2022/06/11 23:26:36;;;;;;;5.22;4.72;;;;;;;;;;6275877;22;20164;-87
2022/06/11 23:29:10;;;;;;;5.07;4.57;;;;;;;;;;6276390;22;20218;-87